sensor_id;sensor_type;location;lat;lon;timestamp;P1;durP1;ratioP1;P2;durP2;ratioP2
60969;SDS011;46841;48.938;9.502;2023-04-03T00:00:04;5.28;;;3.90;;
60969;SDS011;46841;48.938;9.502;2023-04-03T00:02:31;7.20;;;4.32;;
60969;SDS011;46841;48.938;9.502;2023-04-03T00:04:57;7.20;;;3.75;;
60969;SDS011;46841;48.938;9.502;2023-04-03T00:07:22;7.45;;;3.90;;
60969;SDS011;46841;48.938;9.502;2023-04-03T00:09:47;7.75;;;4.75;;
60969;SDS011;46841;48.938;9.502;2023-04-03T00:12:13;6.35;;;4.00;;
60969;SDS011;46841;48.938;9.502;2023-04-03T00:14:38;6.80;;;4.13;;
60969;SDS011;46841;48.938;9.502;2023-04-03T00:17:03;9.45;;;4.00;;
60969;SDS011;46841;48.938;9.502;2023-04-03T00:19:28;6.47;;;4.00;;
60969;SDS011;46841;48.938;9.502;2023-04-03T00:21:54;9.15;;;3.95;;
60969;SDS011;46841;48.938;9.502;2023-04-03T00:24:19;5.70;;;3.90;;
60969;SDS011;46841;48.938;9.502;2023-04-03T00:26:45;7.75;;;3.90;;
60969;SDS011;46841;48.938;9.502;2023-04-03T00:29:10;7.63;;;4.32;;
60969;SDS011;46841;48.938;9.502;2023-04-03T00:31:35;7.57;;;3.90;;
60969;SDS011;46841;48.938;9.502;2023-04-03T00:34:01;8.38;;;4.10;;
60969;SDS011;46841;48.938;9.502;2023-04-03T00:36:26;6.72;;;4.45;;
60969;SDS011;46841;48.938;9.502;2023-04-03T00:38:51;7.63;;;3.85;;
60969;SDS011;46841;48.938;9.502;2023-04-03T00:41:17;5.68;;;3.58;;
60969;SDS011;46841;48.938;9.502;2023-04-03T00:43:43;8.25;;;4.30;;
60969;SDS011;46841;48.938;9.502;2023-04-03T00:46:08;6.25;;;3.78;;
60969;SDS011;46841;48.938;9.502;2023-04-03T00:48:39;7.43;;;3.88;;
60969;SDS011;46841;48.938;9.502;2023-04-03T00:51:06;7.32;;;4.60;;
60969;SDS011;46841;48.938;9.502;2023-04-03T00:53:43;7.63;;;4.07;;
60969;SDS011;46841;48.938;9.502;2023-04-03T00:56:11;6.88;;;3.90;;
60969;SDS011;46841;48.938;9.502;2023-04-03T01:01:03;5.78;;;3.67;;
60969;SDS011;46841;48.938;9.502;2023-04-03T01:03:30;8.07;;;3.80;;
60969;SDS011;46841;48.938;9.502;2023-04-03T01:08:23;5.65;;;3.60;;
60969;SDS011;46841;48.938;9.502;2023-04-03T01:10:48;5.72;;;4.10;;
60969;SDS011;46841;48.938;9.502;2023-04-03T01:13:17;5.82;;;3.85;;
60969;SDS011;46841;48.938;9.502;2023-04-03T01:15:43;6.03;;;3.67;;
60969;SDS011;46841;48.938;9.502;2023-04-03T01:18:09;6.00;;;3.85;;
60969;SDS011;46841;48.938;9.502;2023-04-03T01:21:23;8.75;;;3.78;;
60969;SDS011;46841;48.938;9.502;2023-04-03T01:23:26;5.47;;;3.80;;
60969;SDS011;46841;48.938;9.502;2023-04-03T01:25:55;7.05;;;3.72;;
60969;SDS011;46841;48.938;9.502;2023-04-03T01:28:23;6.00;;;4.15;;
60969;SDS011;46841;48.938;9.502;2023-04-03T01:30:50;6.07;;;3.90;;
60969;SDS011;46841;48.938;9.502;2023-04-03T01:33:17;4.72;;;3.42;;
60969;SDS011;46841;48.938;9.502;2023-04-03T01:35:43;7.25;;;3.97;;
60969;SDS011;46841;48.938;9.502;2023-04-03T01:38:08;5.70;;;3.75;;
60969;SDS011;46841;48.938;9.502;2023-04-03T01:40:33;9.32;;;3.97;;
60969;SDS011;46841;48.938;9.502;2023-04-03T01:42:59;8.20;;;3.95;;
60969;SDS011;46841;48.938;9.502;2023-04-03T01:45:25;8.05;;;4.40;;
60969;SDS011;46841;48.938;9.502;2023-04-03T01:47:50;6.18;;;4.28;;
60969;SDS011;46841;48.938;9.502;2023-04-03T01:50:16;5.90;;;3.95;;
60969;SDS011;46841;48.938;9.502;2023-04-03T01:52:41;9.48;;;4.03;;
60969;SDS011;46841;48.938;9.502;2023-04-03T01:55:07;6.15;;;3.97;;
60969;SDS011;46841;48.938;9.502;2023-04-03T01:57:33;6.70;;;4.18;;
60969;SDS011;46841;48.938;9.502;2023-04-03T01:59:58;6.60;;;3.63;;
60969;SDS011;46841;48.938;9.502;2023-04-03T02:02:23;5.38;;;4.00;;
60969;SDS011;46841;48.938;9.502;2023-04-03T02:04:50;5.30;;;4.00;;
60969;SDS011;46841;48.938;9.502;2023-04-03T02:07:16;6.10;;;3.80;;
60969;SDS011;46841;48.938;9.502;2023-04-03T02:09:42;5.95;;;4.20;;
60969;SDS011;46841;48.938;9.502;2023-04-03T02:12:07;7.47;;;3.60;;
60969;SDS011;46841;48.938;9.502;2023-04-03T02:14:33;7.68;;;3.90;;
60969;SDS011;46841;48.938;9.502;2023-04-03T02:16:59;5.53;;;3.85;;
60969;SDS011;46841;48.938;9.502;2023-04-03T02:19:25;5.95;;;3.72;;
60969;SDS011;46841;48.938;9.502;2023-04-03T02:21:51;6.93;;;3.80;;
60969;SDS011;46841;48.938;9.502;2023-04-03T02:24:16;5.72;;;3.78;;
60969;SDS011;46841;48.938;9.502;2023-04-03T02:26:41;6.70;;;4.03;;
60969;SDS011;46841;48.938;9.502;2023-04-03T02:29:07;7.95;;;3.88;;
60969;SDS011;46841;48.938;9.502;2023-04-03T02:31:34;6.10;;;3.65;;
60969;SDS011;46841;48.938;9.502;2023-04-03T02:34:00;5.70;;;3.72;;
60969;SDS011;46841;48.938;9.502;2023-04-03T02:36:26;5.88;;;3.67;;
60969;SDS011;46841;48.938;9.502;2023-04-03T02:38:56;7.82;;;3.72;;
60969;SDS011;46841;48.938;9.502;2023-04-03T02:41:21;5.85;;;3.50;;
60969;SDS011;46841;48.938;9.502;2023-04-03T02:43:48;7.47;;;3.45;;
60969;SDS011;46841;48.938;9.502;2023-04-03T02:46:14;5.82;;;3.90;;
60969;SDS011;46841;48.938;9.502;2023-04-03T02:48:40;7.07;;;3.55;;
60969;SDS011;46841;48.938;9.502;2023-04-03T02:51:06;6.03;;;3.90;;
60969;SDS011;46841;48.938;9.502;2023-04-03T02:53:31;8.38;;;3.60;;
60969;SDS011;46841;48.938;9.502;2023-04-03T02:56:01;6.88;;;3.63;;
60969;SDS011;46841;48.938;9.502;2023-04-03T02:58:27;6.93;;;3.53;;
60969;SDS011;46841;48.938;9.502;2023-04-03T03:00:55;5.57;;;3.22;;
60969;SDS011;46841;48.938;9.502;2023-04-03T03:03:20;5.35;;;3.30;;
60969;SDS011;46841;48.938;9.502;2023-04-03T03:05:46;5.75;;;3.72;;
60969;SDS011;46841;48.938;9.502;2023-04-03T03:08:13;6.35;;;4.00;;
60969;SDS011;46841;48.938;9.502;2023-04-03T03:10:38;7.18;;;3.15;;
60969;SDS011;46841;48.938;9.502;2023-04-03T03:13:03;4.30;;;3.17;;
60969;SDS011;46841;48.938;9.502;2023-04-03T03:15:29;4.85;;;3.08;;
60969;SDS011;46841;48.938;9.502;2023-04-03T03:17:54;5.65;;;2.95;;
60969;SDS011;46841;48.938;9.502;2023-04-03T03:20:19;10.07;;;3.28;;
60969;SDS011;46841;48.938;9.502;2023-04-03T03:22:46;8.45;;;3.20;;
60969;SDS011;46841;48.938;9.502;2023-04-03T03:25:11;5.25;;;3.00;;
60969;SDS011;46841;48.938;9.502;2023-04-03T03:27:36;4.82;;;3.05;;
60969;SDS011;46841;48.938;9.502;2023-04-03T03:30:01;4.60;;;3.20;;
60969;SDS011;46841;48.938;9.502;2023-04-03T03:32:27;4.75;;;2.88;;
60969;SDS011;46841;48.938;9.502;2023-04-03T03:34:52;5.72;;;3.35;;
60969;SDS011;46841;48.938;9.502;2023-04-03T03:37:19;4.15;;;2.90;;
60969;SDS011;46841;48.938;9.502;2023-04-03T03:39:44;4.35;;;2.90;;
60969;SDS011;46841;48.938;9.502;2023-04-03T03:42:10;5.10;;;3.15;;
60969;SDS011;46841;48.938;9.502;2023-04-03T03:44:36;4.68;;;3.00;;
60969;SDS011;46841;48.938;9.502;2023-04-03T03:47:01;5.72;;;3.15;;
60969;SDS011;46841;48.938;9.502;2023-04-03T03:49:28;4.85;;;3.25;;
60969;SDS011;46841;48.938;9.502;2023-04-03T03:51:53;7.20;;;3.00;;
60969;SDS011;46841;48.938;9.502;2023-04-03T03:54:19;4.63;;;3.15;;
60969;SDS011;46841;48.938;9.502;2023-04-03T03:56:45;7.15;;;3.35;;
60969;SDS011;46841;48.938;9.502;2023-04-03T03:59:11;5.80;;;3.05;;
60969;SDS011;46841;48.938;9.502;2023-04-03T04:01:36;4.95;;;3.00;;
60969;SDS011;46841;48.938;9.502;2023-04-03T04:04:02;5.47;;;3.47;;
60969;SDS011;46841;48.938;9.502;2023-04-03T04:06:29;4.82;;;3.03;;
60969;SDS011;46841;48.938;9.502;2023-04-03T04:08:58;7.00;;;3.25;;
60969;SDS011;46841;48.938;9.502;2023-04-03T04:11:24;6.43;;;3.50;;
60969;SDS011;46841;48.938;9.502;2023-04-03T04:13:52;5.85;;;3.30;;
60969;SDS011;46841;48.938;9.502;2023-04-03T04:16:19;9.25;;;5.22;;
60969;SDS011;46841;48.938;9.502;2023-04-03T04:18:44;18.35;;;10.25;;
60969;SDS011;46841;48.938;9.502;2023-04-03T04:21:10;16.23;;;9.15;;
60969;SDS011;46841;48.938;9.502;2023-04-03T04:23:37;12.93;;;7.60;;
60969;SDS011;46841;48.938;9.502;2023-04-03T04:26:02;10.57;;;7.03;;
60969;SDS011;46841;48.938;9.502;2023-04-03T04:28:32;7.05;;;5.05;;
60969;SDS011;46841;48.938;9.502;2023-04-03T04:30:59;9.02;;;6.32;;
60969;SDS011;46841;48.938;9.502;2023-04-03T04:33:26;7.90;;;5.45;;
60969;SDS011;46841;48.938;9.502;2023-04-03T04:35:52;8.48;;;4.88;;
60969;SDS011;46841;48.938;9.502;2023-04-03T04:38:19;6.68;;;4.70;;
60969;SDS011;46841;48.938;9.502;2023-04-03T04:40:44;9.10;;;5.32;;
60969;SDS011;46841;48.938;9.502;2023-04-03T04:43:10;7.95;;;4.88;;
60969;SDS011;46841;48.938;9.502;2023-04-03T04:45:40;7.32;;;4.00;;
60969;SDS011;46841;48.938;9.502;2023-04-03T04:48:05;7.55;;;3.65;;
60969;SDS011;46841;48.938;9.502;2023-04-03T04:50:31;6.15;;;3.92;;
60969;SDS011;46841;48.938;9.502;2023-04-03T04:52:56;6.25;;;3.65;;
60969;SDS011;46841;48.938;9.502;2023-04-03T04:55:21;6.95;;;4.07;;
60969;SDS011;46841;48.938;9.502;2023-04-03T04:57:48;6.07;;;4.20;;
60969;SDS011;46841;48.938;9.502;2023-04-03T05:00:14;6.68;;;4.78;;
60969;SDS011;46841;48.938;9.502;2023-04-03T05:02:40;5.68;;;3.95;;
60969;SDS011;46841;48.938;9.502;2023-04-03T05:05:06;6.38;;;3.95;;
60969;SDS011;46841;48.938;9.502;2023-04-03T05:07:33;6.45;;;4.05;;
60969;SDS011;46841;48.938;9.502;2023-04-03T05:09:59;7.45;;;4.10;;
60969;SDS011;46841;48.938;9.502;2023-04-03T05:12:25;5.72;;;3.65;;
60969;SDS011;46841;48.938;9.502;2023-04-03T05:14:55;7.00;;;3.90;;
60969;SDS011;46841;48.938;9.502;2023-04-03T05:17:21;5.63;;;3.67;;
60969;SDS011;46841;48.938;9.502;2023-04-03T05:19:50;5.78;;;3.90;;
60969;SDS011;46841;48.938;9.502;2023-04-03T05:22:18;5.57;;;3.58;;
60969;SDS011;46841;48.938;9.502;2023-04-03T05:24:43;8.07;;;3.75;;
60969;SDS011;46841;48.938;9.502;2023-04-03T05:27:09;6.82;;;3.60;;
60969;SDS011;46841;48.938;9.502;2023-04-03T05:29:38;6.65;;;3.95;;
60969;SDS011;46841;48.938;9.502;2023-04-03T05:32:04;6.47;;;3.83;;
60969;SDS011;46841;48.938;9.502;2023-04-03T05:34:29;6.32;;;3.60;;
60969;SDS011;46841;48.938;9.502;2023-04-03T05:36:55;10.05;;;3.53;;
60969;SDS011;46841;48.938;9.502;2023-04-03T05:39:20;6.28;;;4.00;;
60969;SDS011;46841;48.938;9.502;2023-04-03T05:41:47;6.88;;;4.07;;
60969;SDS011;46841;48.938;9.502;2023-04-03T05:44:13;7.10;;;3.80;;
60969;SDS011;46841;48.938;9.502;2023-04-03T05:46:40;8.10;;;3.92;;
60969;SDS011;46841;48.938;9.502;2023-04-03T05:49:08;7.32;;;3.85;;
60969;SDS011;46841;48.938;9.502;2023-04-03T05:51:35;9.30;;;4.35;;
60969;SDS011;46841;48.938;9.502;2023-04-03T05:54:41;6.25;;;3.85;;
60969;SDS011;46841;48.938;9.502;2023-04-03T05:57:09;7.22;;;3.78;;
60969;SDS011;46841;48.938;9.502;2023-04-03T05:59:35;6.97;;;3.70;;
60969;SDS011;46841;48.938;9.502;2023-04-03T06:02:00;7.45;;;4.03;;
60969;SDS011;46841;48.938;9.502;2023-04-03T06:04:28;7.05;;;3.88;;
60969;SDS011;46841;48.938;9.502;2023-04-03T06:06:54;8.00;;;4.15;;
60969;SDS011;46841;48.938;9.502;2023-04-03T06:09:21;9.52;;;4.50;;
60969;SDS011;46841;48.938;9.502;2023-04-03T06:11:46;9.95;;;4.00;;
60969;SDS011;46841;48.938;9.502;2023-04-03T06:14:12;6.32;;;3.60;;
60969;SDS011;46841;48.938;9.502;2023-04-03T06:16:37;7.53;;;4.10;;
60969;SDS011;46841;48.938;9.502;2023-04-03T06:19:06;7.75;;;4.20;;
60969;SDS011;46841;48.938;9.502;2023-04-03T06:21:32;6.95;;;3.97;;
60969;SDS011;46841;48.938;9.502;2023-04-03T06:23:57;7.07;;;3.80;;
60969;SDS011;46841;48.938;9.502;2023-04-03T06:26:23;10.82;;;4.75;;
60969;SDS011;46841;48.938;9.502;2023-04-03T06:28:48;9.48;;;4.07;;
60969;SDS011;46841;48.938;9.502;2023-04-03T06:31:13;6.95;;;4.13;;
60969;SDS011;46841;48.938;9.502;2023-04-03T06:33:39;7.18;;;4.50;;
60969;SDS011;46841;48.938;9.502;2023-04-03T06:36:04;9.70;;;4.30;;
60969;SDS011;46841;48.938;9.502;2023-04-03T06:38:30;6.75;;;4.00;;
60969;SDS011;46841;48.938;9.502;2023-04-03T06:40:55;7.97;;;4.28;;
60969;SDS011;46841;48.938;9.502;2023-04-03T06:43:21;7.82;;;3.88;;
60969;SDS011;46841;48.938;9.502;2023-04-03T06:45:47;7.85;;;3.90;;
60969;SDS011;46841;48.938;9.502;2023-04-03T06:48:12;7.85;;;4.90;;
60969;SDS011;46841;48.938;9.502;2023-04-03T06:50:38;7.38;;;3.80;;
60969;SDS011;46841;48.938;9.502;2023-04-03T06:53:03;5.85;;;3.55;;
60969;SDS011;46841;48.938;9.502;2023-04-03T06:55:29;8.15;;;3.97;;
60969;SDS011;46841;48.938;9.502;2023-04-03T06:57:54;9.35;;;3.80;;
60969;SDS011;46841;48.938;9.502;2023-04-03T07:00:20;6.88;;;3.78;;
60969;SDS011;46841;48.938;9.502;2023-04-03T07:02:46;7.65;;;3.70;;
60969;SDS011;46841;48.938;9.502;2023-04-03T07:05:12;7.18;;;3.60;;
60969;SDS011;46841;48.938;9.502;2023-04-03T07:07:37;6.47;;;4.13;;
60969;SDS011;46841;48.938;9.502;2023-04-03T07:10:03;9.38;;;3.92;;
60969;SDS011;46841;48.938;9.502;2023-04-03T07:12:29;9.13;;;3.75;;
60969;SDS011;46841;48.938;9.502;2023-04-03T07:14:54;8.27;;;3.90;;
60969;SDS011;46841;48.938;9.502;2023-04-03T07:17:20;7.57;;;3.58;;
60969;SDS011;46841;48.938;9.502;2023-04-03T07:19:45;5.88;;;3.10;;
60969;SDS011;46841;48.938;9.502;2023-04-03T07:22:10;6.78;;;3.90;;
60969;SDS011;46841;48.938;9.502;2023-04-03T07:24:36;6.60;;;3.78;;
60969;SDS011;46841;48.938;9.502;2023-04-03T07:27:01;16.63;;;7.00;;
60969;SDS011;46841;48.938;9.502;2023-04-03T07:29:27;9.38;;;4.25;;
60969;SDS011;46841;48.938;9.502;2023-04-03T07:31:53;6.43;;;3.95;;
60969;SDS011;46841;48.938;9.502;2023-04-03T07:34:20;7.45;;;3.45;;
60969;SDS011;46841;48.938;9.502;2023-04-03T07:36:45;9.73;;;3.85;;
60969;SDS011;46841;48.938;9.502;2023-04-03T07:39:11;7.82;;;3.70;;
60969;SDS011;46841;48.938;9.502;2023-04-03T07:41:36;6.95;;;3.80;;
60969;SDS011;46841;48.938;9.502;2023-04-03T07:44:02;6.47;;;4.10;;
60969;SDS011;46841;48.938;9.502;2023-04-03T07:46:27;6.60;;;3.65;;
60969;SDS011;46841;48.938;9.502;2023-04-03T07:48:53;9.15;;;4.07;;
60969;SDS011;46841;48.938;9.502;2023-04-03T07:51:18;10.00;;;3.75;;
60969;SDS011;46841;48.938;9.502;2023-04-03T07:53:44;6.95;;;3.92;;
60969;SDS011;46841;48.938;9.502;2023-04-03T07:56:09;7.50;;;4.07;;
60969;SDS011;46841;48.938;9.502;2023-04-03T07:58:35;6.28;;;3.53;;
60969;SDS011;46841;48.938;9.502;2023-04-03T08:01:01;9.02;;;3.55;;
60969;SDS011;46841;48.938;9.502;2023-04-03T08:03:26;7.30;;;3.20;;
60969;SDS011;46841;48.938;9.502;2023-04-03T08:05:51;6.63;;;3.42;;
60969;SDS011;46841;48.938;9.502;2023-04-03T08:08:19;7.43;;;3.17;;
60969;SDS011;46841;48.938;9.502;2023-04-03T08:10:48;6.55;;;3.28;;
60969;SDS011;46841;48.938;9.502;2023-04-03T08:13:13;8.38;;;3.33;;
60969;SDS011;46841;48.938;9.502;2023-04-03T08:15:38;6.13;;;3.47;;
60969;SDS011;46841;48.938;9.502;2023-04-03T08:18:04;8.82;;;3.50;;
60969;SDS011;46841;48.938;9.502;2023-04-03T08:20:29;7.10;;;3.40;;
60969;SDS011;46841;48.938;9.502;2023-04-03T08:22:54;7.55;;;3.40;;
60969;SDS011;46841;48.938;9.502;2023-04-03T08:25:20;5.45;;;3.10;;
60969;SDS011;46841;48.938;9.502;2023-04-03T08:27:45;7.63;;;3.63;;
60969;SDS011;46841;48.938;9.502;2023-04-03T08:30:11;8.35;;;3.67;;
60969;SDS011;46841;48.938;9.502;2023-04-03T08:32:36;7.53;;;3.30;;
60969;SDS011;46841;48.938;9.502;2023-04-03T08:35:02;8.20;;;3.50;;
60969;SDS011;46841;48.938;9.502;2023-04-03T08:37:27;6.95;;;3.40;;
60969;SDS011;46841;48.938;9.502;2023-04-03T08:39:53;6.10;;;3.25;;
60969;SDS011;46841;48.938;9.502;2023-04-03T08:44:58;7.70;;;3.88;;
60969;SDS011;46841;48.938;9.502;2023-04-03T08:47:40;7.03;;;3.45;;
60969;SDS011;46841;48.938;9.502;2023-04-03T08:50:07;5.88;;;3.30;;
60969;SDS011;46841;48.938;9.502;2023-04-03T08:52:38;6.88;;;3.17;;
60969;SDS011;46841;48.938;9.502;2023-04-03T08:55:05;8.18;;;3.40;;
60969;SDS011;46841;48.938;9.502;2023-04-03T08:57:41;7.15;;;3.35;;
60969;SDS011;46841;48.938;9.502;2023-04-03T09:00:17;5.72;;;3.45;;
60969;SDS011;46841;48.938;9.502;2023-04-03T09:02:43;5.75;;;3.20;;
60969;SDS011;46841;48.938;9.502;2023-04-03T09:05:11;6.53;;;3.78;;
60969;SDS011;46841;48.938;9.502;2023-04-03T09:07:39;5.72;;;3.30;;
60969;SDS011;46841;48.938;9.502;2023-04-03T09:10:07;6.85;;;3.40;;
60969;SDS011;46841;48.938;9.502;2023-04-03T09:12:36;9.40;;;4.00;;
60969;SDS011;46841;48.938;9.502;2023-04-03T09:15:13;5.93;;;3.45;;
60969;SDS011;46841;48.938;9.502;2023-04-03T09:22:43;8.77;;;3.75;;
60969;SDS011;46841;48.938;9.502;2023-04-03T09:25:22;11.13;;;4.03;;
60969;SDS011;46841;48.938;9.502;2023-04-03T09:27:48;6.13;;;3.00;;
60969;SDS011;46841;48.938;9.502;2023-04-03T09:30:18;6.43;;;3.00;;
60969;SDS011;46841;48.938;9.502;2023-04-03T09:32:45;6.53;;;3.70;;
60969;SDS011;46841;48.938;9.502;2023-04-03T09:35:22;6.28;;;2.90;;
60969;SDS011;46841;48.938;9.502;2023-04-03T09:37:49;6.38;;;2.83;;
60969;SDS011;46841;48.938;9.502;2023-04-03T09:45:29;5.40;;;2.80;;
60969;SDS011;46841;48.938;9.502;2023-04-03T09:50:30;6.75;;;3.17;;
60969;SDS011;46841;48.938;9.502;2023-04-03T09:52:55;8.57;;;3.13;;
60969;SDS011;46841;48.938;9.502;2023-04-03T09:57:52;8.23;;;3.03;;
60969;SDS011;46841;48.938;9.502;2023-04-03T10:02:46;6.43;;;2.90;;
60969;SDS011;46841;48.938;9.502;2023-04-03T10:08:09;7.53;;;2.80;;
60969;SDS011;46841;48.938;9.502;2023-04-03T10:10:35;7.45;;;2.80;;
60969;SDS011;46841;48.938;9.502;2023-04-03T10:13:09;4.28;;;2.50;;
60969;SDS011;46841;48.938;9.502;2023-04-03T10:15:42;6.40;;;3.20;;
60969;SDS011;46841;48.938;9.502;2023-04-03T10:18:44;4.20;;;2.60;;
60969;SDS011;46841;48.938;9.502;2023-04-03T10:21:23;5.60;;;2.45;;
60969;SDS011;46841;48.938;9.502;2023-04-03T10:28:57;4.53;;;2.88;;
60969;SDS011;46841;48.938;9.502;2023-04-03T10:31:28;7.68;;;2.65;;
60969;SDS011;46841;48.938;9.502;2023-04-03T10:34:05;7.15;;;2.90;;
60969;SDS011;46841;48.938;9.502;2023-04-03T10:47:51;7.38;;;3.08;;
60969;SDS011;46841;48.938;9.502;2023-04-03T10:58:43;6.15;;;2.80;;
60969;SDS011;46841;48.938;9.502;2023-04-03T11:01:21;7.43;;;3.35;;
60969;SDS011;46841;48.938;9.502;2023-04-03T11:03:54;7.55;;;2.97;;
60969;SDS011;46841;48.938;9.502;2023-04-03T11:06:21;7.60;;;2.97;;
60969;SDS011;46841;48.938;9.502;2023-04-03T11:08:53;8.55;;;2.97;;
60969;SDS011;46841;48.938;9.502;2023-04-03T11:11:24;6.57;;;3.00;;
60969;SDS011;46841;48.938;9.502;2023-04-03T11:13:52;5.68;;;3.00;;
60969;SDS011;46841;48.938;9.502;2023-04-03T11:16:22;5.93;;;2.60;;
60969;SDS011;46841;48.938;9.502;2023-04-03T11:18:54;6.53;;;2.80;;
60969;SDS011;46841;48.938;9.502;2023-04-03T11:21:22;6.60;;;2.92;;
60969;SDS011;46841;48.938;9.502;2023-04-03T11:23:49;5.05;;;2.67;;
60969;SDS011;46841;48.938;9.502;2023-04-03T11:26:21;4.95;;;2.67;;
60969;SDS011;46841;48.938;9.502;2023-04-03T11:28:47;7.22;;;2.83;;
60969;SDS011;46841;48.938;9.502;2023-04-03T11:41:53;5.30;;;2.45;;
60969;SDS011;46841;48.938;9.502;2023-04-03T11:44:29;5.95;;;2.92;;
60969;SDS011;46841;48.938;9.502;2023-04-03T11:46:57;6.60;;;3.20;;
60969;SDS011;46841;48.938;9.502;2023-04-03T11:52:10;5.22;;;2.38;;
60969;SDS011;46841;48.938;9.502;2023-04-03T11:54:45;7.00;;;3.10;;
60969;SDS011;46841;48.938;9.502;2023-04-03T11:57:22;4.15;;;2.47;;
60969;SDS011;46841;48.938;9.502;2023-04-03T11:59:48;7.47;;;2.50;;
60969;SDS011;46841;48.938;9.502;2023-04-03T12:07:41;7.78;;;3.50;;
60969;SDS011;46841;48.938;9.502;2023-04-03T12:10:14;9.25;;;4.30;;
60969;SDS011;46841;48.938;9.502;2023-04-03T12:12:41;5.88;;;2.65;;
60969;SDS011;46841;48.938;9.502;2023-04-03T12:15:20;11.23;;;4.40;;
60969;SDS011;46841;48.938;9.502;2023-04-03T12:17:46;5.78;;;2.72;;
60969;SDS011;46841;48.938;9.502;2023-04-03T12:23:07;6.60;;;2.63;;
60969;SDS011;46841;48.938;9.502;2023-04-03T12:25:49;3.72;;;2.40;;
60969;SDS011;46841;48.938;9.502;2023-04-03T12:28:15;6.93;;;3.30;;
60969;SDS011;46841;48.938;9.502;2023-04-03T12:30:40;6.18;;;3.28;;
60969;SDS011;46841;48.938;9.502;2023-04-03T12:35:37;6.32;;;2.50;;
60969;SDS011;46841;48.938;9.502;2023-04-03T12:48:18;5.97;;;3.17;;
60969;SDS011;46841;48.938;9.502;2023-04-03T12:50:45;6.85;;;2.50;;
60969;SDS011;46841;48.938;9.502;2023-04-03T12:55:36;6.00;;;2.70;;
60969;SDS011;46841;48.938;9.502;2023-04-03T12:58:15;4.97;;;2.60;;
60969;SDS011;46841;48.938;9.502;2023-04-03T13:00:42;9.13;;;3.28;;
60969;SDS011;46841;48.938;9.502;2023-04-03T13:03:18;5.15;;;2.85;;
60969;SDS011;46841;48.938;9.502;2023-04-03T13:05:45;5.93;;;2.80;;
60969;SDS011;46841;48.938;9.502;2023-04-03T13:08:12;8.25;;;2.78;;
60969;SDS011;46841;48.938;9.502;2023-04-03T13:10:43;6.38;;;2.78;;
60969;SDS011;46841;48.938;9.502;2023-04-03T13:13:13;4.43;;;2.92;;
60969;SDS011;46841;48.938;9.502;2023-04-03T13:15:44;5.50;;;2.80;;
60969;SDS011;46841;48.938;9.502;2023-04-03T13:18:32;4.82;;;2.47;;
60969;SDS011;46841;48.938;9.502;2023-04-03T13:21:02;4.53;;;2.75;;
60969;SDS011;46841;48.938;9.502;2023-04-03T13:23:28;4.60;;;2.58;;
60969;SDS011;46841;48.938;9.502;2023-04-03T13:25:54;5.35;;;2.60;;
60969;SDS011;46841;48.938;9.502;2023-04-03T13:28:21;4.45;;;2.33;;
60969;SDS011;46841;48.938;9.502;2023-04-03T13:33:43;5.88;;;2.47;;
60969;SDS011;46841;48.938;9.502;2023-04-03T13:36:21;5.30;;;2.65;;
60969;SDS011;46841;48.938;9.502;2023-04-03T13:41:35;5.35;;;2.53;;
60969;SDS011;46841;48.938;9.502;2023-04-03T13:46:41;9.77;;;3.75;;
60969;SDS011;46841;48.938;9.502;2023-04-03T13:51:48;5.97;;;2.72;;
60969;SDS011;46841;48.938;9.502;2023-04-03T13:54:21;4.85;;;2.50;;
60969;SDS011;46841;48.938;9.502;2023-04-03T13:56:47;6.00;;;2.72;;
60969;SDS011;46841;48.938;9.502;2023-04-03T14:01:46;4.22;;;2.30;;
60969;SDS011;46841;48.938;9.502;2023-04-03T14:04:16;8.55;;;3.80;;
60969;SDS011;46841;48.938;9.502;2023-04-03T14:06:44;6.25;;;2.60;;
60969;SDS011;46841;48.938;9.502;2023-04-03T14:09:09;4.43;;;2.30;;
60969;SDS011;46841;48.938;9.502;2023-04-03T14:11:34;7.18;;;2.80;;
60969;SDS011;46841;48.938;9.502;2023-04-03T14:14:01;6.43;;;2.97;;
60969;SDS011;46841;48.938;9.502;2023-04-03T14:16:30;6.78;;;2.67;;
60969;SDS011;46841;48.938;9.502;2023-04-03T14:18:56;4.37;;;2.33;;
60969;SDS011;46841;48.938;9.502;2023-04-03T14:21:22;5.75;;;2.40;;
60969;SDS011;46841;48.938;9.502;2023-04-03T14:23:47;4.60;;;2.72;;
60969;SDS011;46841;48.938;9.502;2023-04-03T14:26:13;4.97;;;2.47;;
60969;SDS011;46841;48.938;9.502;2023-04-03T14:28:41;4.63;;;2.60;;
60969;SDS011;46841;48.938;9.502;2023-04-03T14:31:07;3.40;;;2.15;;
60969;SDS011;46841;48.938;9.502;2023-04-03T14:33:32;4.10;;;2.40;;
60969;SDS011;46841;48.938;9.502;2023-04-03T14:36:00;8.60;;;2.92;;
60969;SDS011;46841;48.938;9.502;2023-04-03T14:38:26;4.07;;;2.63;;
60969;SDS011;46841;48.938;9.502;2023-04-03T14:40:52;3.53;;;2.33;;
60969;SDS011;46841;48.938;9.502;2023-04-03T14:43:18;4.72;;;2.60;;
60969;SDS011;46841;48.938;9.502;2023-04-03T14:45:44;4.28;;;2.40;;
60969;SDS011;46841;48.938;9.502;2023-04-03T14:48:10;4.75;;;2.30;;
60969;SDS011;46841;48.938;9.502;2023-04-03T14:50:41;5.28;;;2.53;;
60969;SDS011;46841;48.938;9.502;2023-04-03T14:53:06;5.55;;;2.60;;
60969;SDS011;46841;48.938;9.502;2023-04-03T14:55:32;8.93;;;2.97;;
60969;SDS011;46841;48.938;9.502;2023-04-03T14:57:58;6.72;;;2.72;;
60969;SDS011;46841;48.938;9.502;2023-04-03T15:00:23;5.32;;;2.35;;
60969;SDS011;46841;48.938;9.502;2023-04-03T15:02:49;5.30;;;2.78;;
60969;SDS011;46841;48.938;9.502;2023-04-03T15:05:16;4.93;;;3.00;;
60969;SDS011;46841;48.938;9.502;2023-04-03T15:07:46;6.20;;;2.40;;
60969;SDS011;46841;48.938;9.502;2023-04-03T15:12:41;7.40;;;3.40;;
60969;SDS011;46841;48.938;9.502;2023-04-03T15:15:07;5.28;;;2.80;;
60969;SDS011;46841;48.938;9.502;2023-04-03T15:17:33;11.13;;;2.80;;
60969;SDS011;46841;48.938;9.502;2023-04-03T15:19:59;5.65;;;2.85;;
60969;SDS011;46841;48.938;9.502;2023-04-03T15:22:24;8.27;;;3.83;;
60969;SDS011;46841;48.938;9.502;2023-04-03T15:24:50;5.63;;;3.28;;
60969;SDS011;46841;48.938;9.502;2023-04-03T15:27:15;8.20;;;2.92;;
60969;SDS011;46841;48.938;9.502;2023-04-03T15:29:41;4.80;;;3.15;;
60969;SDS011;46841;48.938;9.502;2023-04-03T15:32:07;4.20;;;2.50;;
60969;SDS011;46841;48.938;9.502;2023-04-03T15:34:34;5.60;;;3.10;;
60969;SDS011;46841;48.938;9.502;2023-04-03T15:36:59;5.25;;;3.03;;
60969;SDS011;46841;48.938;9.502;2023-04-03T15:39:25;6.70;;;2.70;;
60969;SDS011;46841;48.938;9.502;2023-04-03T15:41:51;4.07;;;2.58;;
60969;SDS011;46841;48.938;9.502;2023-04-03T15:44:19;5.43;;;2.67;;
60969;SDS011;46841;48.938;9.502;2023-04-03T15:46:48;7.00;;;2.83;;
60969;SDS011;46841;48.938;9.502;2023-04-03T15:49:19;5.53;;;2.75;;
60969;SDS011;46841;48.938;9.502;2023-04-03T15:51:46;6.30;;;2.60;;
60969;SDS011;46841;48.938;9.502;2023-04-03T15:54:11;5.07;;;2.53;;
60969;SDS011;46841;48.938;9.502;2023-04-03T15:56:36;4.75;;;2.35;;
60969;SDS011;46841;48.938;9.502;2023-04-03T15:59:02;5.68;;;2.60;;
60969;SDS011;46841;48.938;9.502;2023-04-03T16:01:27;5.32;;;2.40;;
60969;SDS011;46841;48.938;9.502;2023-04-03T16:03:52;5.38;;;2.60;;
60969;SDS011;46841;48.938;9.502;2023-04-03T16:06:18;3.13;;;2.22;;
60969;SDS011;46841;48.938;9.502;2023-04-03T16:08:44;5.00;;;2.85;;
60969;SDS011;46841;48.938;9.502;2023-04-03T16:11:09;6.25;;;2.55;;
60969;SDS011;46841;48.938;9.502;2023-04-03T16:13:35;5.15;;;2.63;;
60969;SDS011;46841;48.938;9.502;2023-04-03T16:16:00;7.10;;;3.30;;
60969;SDS011;46841;48.938;9.502;2023-04-03T16:18:27;5.82;;;3.20;;
60969;SDS011;46841;48.938;9.502;2023-04-03T16:20:52;4.03;;;2.28;;
60969;SDS011;46841;48.938;9.502;2023-04-03T16:23:17;4.97;;;2.60;;
60969;SDS011;46841;48.938;9.502;2023-04-03T16:25:43;7.43;;;2.65;;
60969;SDS011;46841;48.938;9.502;2023-04-03T16:28:15;4.78;;;2.42;;
60969;SDS011;46841;48.938;9.502;2023-04-03T16:30:41;7.30;;;3.28;;
60969;SDS011;46841;48.938;9.502;2023-04-03T16:33:06;9.38;;;2.92;;